Aviation Digital Data Service (ADDS)

Output produced by METARs form (1557 UTC 19 November 2017)
found at http://aviationweather.gov/adds/metars/
 
KHUM 191547Z 03011G20KT 7SM CLR 13/01 A3022